sensor_id;sensor_type;location;lat;lon;timestamp;P1;durP1;ratioP1;P2;durP2;ratioP2
21032;SDS011;10675;47.976;7.824;2023-02-24T00:00:12;7.17;;;3.53;;
21032;SDS011;10675;47.976;7.824;2023-02-24T00:02:56;10.60;;;3.53;;
21032;SDS011;10675;47.976;7.824;2023-02-24T00:05:23;5.77;;;3.83;;
21032;SDS011;10675;47.976;7.824;2023-02-24T00:07:48;4.60;;;3.30;;
21032;SDS011;10675;47.976;7.824;2023-02-24T00:10:14;8.53;;;3.93;;
21032;SDS011;10675;47.976;7.824;2023-02-24T00:12:44;7.23;;;4.13;;
21032;SDS011;10675;47.976;7.824;2023-02-24T00:15:13;7.03;;;3.60;;
21032;SDS011;10675;47.976;7.824;2023-02-24T00:17:40;7.43;;;4.00;;
21032;SDS011;10675;47.976;7.824;2023-02-24T00:20:06;8.07;;;4.13;;
21032;SDS011;10675;47.976;7.824;2023-02-24T00:22:36;8.90;;;3.40;;
21032;SDS011;10675;47.976;7.824;2023-02-24T00:25:02;8.37;;;3.03;;
21032;SDS011;10675;47.976;7.824;2023-02-24T00:27:28;6.43;;;3.93;;
21032;SDS011;10675;47.976;7.824;2023-02-24T00:29:53;7.10;;;3.83;;
21032;SDS011;10675;47.976;7.824;2023-02-24T00:32:19;8.87;;;4.03;;
21032;SDS011;10675;47.976;7.824;2023-02-24T00:34:44;7.43;;;3.90;;
21032;SDS011;10675;47.976;7.824;2023-02-24T00:37:12;6.20;;;3.73;;
21032;SDS011;10675;47.976;7.824;2023-02-24T00:39:39;6.30;;;3.27;;
21032;SDS011;10675;47.976;7.824;2023-02-24T00:42:05;7.07;;;3.23;;
21032;SDS011;10675;47.976;7.824;2023-02-24T00:44:32;5.87;;;2.97;;
21032;SDS011;10675;47.976;7.824;2023-02-24T00:47:03;8.90;;;3.63;;
21032;SDS011;10675;47.976;7.824;2023-02-24T00:49:31;7.93;;;3.57;;
21032;SDS011;10675;47.976;7.824;2023-02-24T00:51:57;5.33;;;3.60;;
21032;SDS011;10675;47.976;7.824;2023-02-24T00:54:23;6.63;;;3.57;;
21032;SDS011;10675;47.976;7.824;2023-02-24T00:56:52;9.17;;;3.87;;
21032;SDS011;10675;47.976;7.824;2023-02-24T00:59:19;9.10;;;4.03;;
21032;SDS011;10675;47.976;7.824;2023-02-24T01:01:47;4.90;;;3.13;;
21032;SDS011;10675;47.976;7.824;2023-02-24T01:04:14;5.43;;;3.13;;
21032;SDS011;10675;47.976;7.824;2023-02-24T01:06:41;5.77;;;3.47;;
21032;SDS011;10675;47.976;7.824;2023-02-24T01:09:12;5.10;;;2.97;;
21032;SDS011;10675;47.976;7.824;2023-02-24T01:11:40;10.17;;;3.53;;
21032;SDS011;10675;47.976;7.824;2023-02-24T01:14:27;7.17;;;3.27;;
21032;SDS011;10675;47.976;7.824;2023-02-24T01:16:55;4.80;;;2.80;;
21032;SDS011;10675;47.976;7.824;2023-02-24T01:19:22;10.60;;;3.40;;
21032;SDS011;10675;47.976;7.824;2023-02-24T01:21:54;5.23;;;3.30;;
21032;SDS011;10675;47.976;7.824;2023-02-24T01:24:20;6.30;;;3.57;;
21032;SDS011;10675;47.976;7.824;2023-02-24T01:26:47;4.30;;;2.87;;
21032;SDS011;10675;47.976;7.824;2023-02-24T01:29:13;5.87;;;3.10;;
21032;SDS011;10675;47.976;7.824;2023-02-24T01:31:39;8.07;;;3.27;;
21032;SDS011;10675;47.976;7.824;2023-02-24T01:34:06;5.43;;;3.23;;
21032;SDS011;10675;47.976;7.824;2023-02-24T01:36:37;7.60;;;3.40;;
21032;SDS011;10675;47.976;7.824;2023-02-24T01:39:07;8.73;;;3.50;;
21032;SDS011;10675;47.976;7.824;2023-02-24T01:41:35;5.57;;;3.80;;
21032;SDS011;10675;47.976;7.824;2023-02-24T01:46:35;5.13;;;3.20;;
21032;SDS011;10675;47.976;7.824;2023-02-24T01:49:07;7.90;;;3.50;;
21032;SDS011;10675;47.976;7.824;2023-02-24T01:51:44;6.73;;;3.47;;
21032;SDS011;10675;47.976;7.824;2023-02-24T01:54:17;3.87;;;2.50;;
21032;SDS011;10675;47.976;7.824;2023-02-24T01:56:48;7.27;;;3.37;;
21032;SDS011;10675;47.976;7.824;2023-02-24T01:59:15;8.30;;;2.90;;
21032;SDS011;10675;47.976;7.824;2023-02-24T02:01:42;7.10;;;2.60;;
21032;SDS011;10675;47.976;7.824;2023-02-24T02:06:53;6.97;;;3.40;;
21032;SDS011;10675;47.976;7.824;2023-02-24T02:09:19;5.47;;;3.03;;
21032;SDS011;10675;47.976;7.824;2023-02-24T02:11:45;7.13;;;3.00;;
21032;SDS011;10675;47.976;7.824;2023-02-24T02:14:13;4.03;;;2.77;;
21032;SDS011;10675;47.976;7.824;2023-02-24T02:16:48;7.13;;;3.20;;
21032;SDS011;10675;47.976;7.824;2023-02-24T02:22:03;5.63;;;3.40;;
21032;SDS011;10675;47.976;7.824;2023-02-24T02:30:23;5.07;;;3.07;;
21032;SDS011;10675;47.976;7.824;2023-02-24T02:39:13;5.13;;;3.13;;
21032;SDS011;10675;47.976;7.824;2023-02-24T02:42:09;3.83;;;3.03;;
21032;SDS011;10675;47.976;7.824;2023-02-24T02:50:12;6.00;;;3.03;;
21032;SDS011;10675;47.976;7.824;2023-02-24T02:52:56;4.50;;;2.97;;
21032;SDS011;10675;47.976;7.824;2023-02-24T02:58:02;7.13;;;3.10;;
21032;SDS011;10675;47.976;7.824;2023-02-24T03:00:38;6.57;;;3.33;;
21032;SDS011;10675;47.976;7.824;2023-02-24T03:03:25;5.27;;;3.80;;
21032;SDS011;10675;47.976;7.824;2023-02-24T03:06:03;7.27;;;3.10;;
21032;SDS011;10675;47.976;7.824;2023-02-24T03:08:35;6.17;;;2.90;;
21032;SDS011;10675;47.976;7.824;2023-02-24T03:11:04;8.27;;;3.53;;
21032;SDS011;10675;47.976;7.824;2023-02-24T03:13:34;5.87;;;2.83;;
21032;SDS011;10675;47.976;7.824;2023-02-24T03:16:03;7.00;;;3.90;;
21032;SDS011;10675;47.976;7.824;2023-02-24T03:18:31;7.03;;;3.73;;
21032;SDS011;10675;47.976;7.824;2023-02-24T03:21:04;6.67;;;3.30;;
21032;SDS011;10675;47.976;7.824;2023-02-24T03:23:46;7.67;;;3.70;;
21032;SDS011;10675;47.976;7.824;2023-02-24T03:31:41;7.47;;;4.27;;
21032;SDS011;10675;47.976;7.824;2023-02-24T03:37:24;5.80;;;3.20;;
21032;SDS011;10675;47.976;7.824;2023-02-24T03:39:54;7.13;;;3.43;;
21032;SDS011;10675;47.976;7.824;2023-02-24T03:42:22;7.67;;;3.40;;
21032;SDS011;10675;47.976;7.824;2023-02-24T03:44:51;7.83;;;3.73;;
21032;SDS011;10675;47.976;7.824;2023-02-24T03:47:17;8.10;;;3.17;;
21032;SDS011;10675;47.976;7.824;2023-02-24T03:49:44;6.73;;;3.30;;
21032;SDS011;10675;47.976;7.824;2023-02-24T03:58:37;5.93;;;3.37;;
21032;SDS011;10675;47.976;7.824;2023-02-24T04:04:26;6.60;;;3.23;;
21032;SDS011;10675;47.976;7.824;2023-02-24T04:06:58;10.70;;;4.27;;
21032;SDS011;10675;47.976;7.824;2023-02-24T04:15:04;14.53;;;3.70;;
21032;SDS011;10675;47.976;7.824;2023-02-24T04:17:47;8.93;;;4.13;;
21032;SDS011;10675;47.976;7.824;2023-02-24T04:20:20;6.23;;;3.63;;
21032;SDS011;10675;47.976;7.824;2023-02-24T04:22:49;8.60;;;3.93;;
21032;SDS011;10675;47.976;7.824;2023-02-24T04:25:21;9.43;;;3.77;;
21032;SDS011;10675;47.976;7.824;2023-02-24T04:27:52;9.53;;;4.00;;
21032;SDS011;10675;47.976;7.824;2023-02-24T04:30:21;7.07;;;3.77;;
21032;SDS011;10675;47.976;7.824;2023-02-24T04:32:50;6.93;;;3.30;;
21032;SDS011;10675;47.976;7.824;2023-02-24T04:35:18;8.03;;;3.67;;
21032;SDS011;10675;47.976;7.824;2023-02-24T04:37:46;7.70;;;3.93;;
21032;SDS011;10675;47.976;7.824;2023-02-24T04:40:12;7.87;;;3.93;;
21032;SDS011;10675;47.976;7.824;2023-02-24T04:42:41;8.53;;;4.17;;
21032;SDS011;10675;47.976;7.824;2023-02-24T04:45:20;7.03;;;4.30;;
21032;SDS011;10675;47.976;7.824;2023-02-24T04:47:51;6.13;;;3.10;;
21032;SDS011;10675;47.976;7.824;2023-02-24T04:50:31;5.67;;;2.90;;
21032;SDS011;10675;47.976;7.824;2023-02-24T04:53:00;3.27;;;2.60;;
21032;SDS011;10675;47.976;7.824;2023-02-24T04:55:28;9.30;;;3.10;;
21032;SDS011;10675;47.976;7.824;2023-02-24T04:57:57;6.10;;;2.60;;
21032;SDS011;10675;47.976;7.824;2023-02-24T05:00:26;3.33;;;2.30;;
21032;SDS011;10675;47.976;7.824;2023-02-24T05:02:58;10.00;;;2.90;;
21032;SDS011;10675;47.976;7.824;2023-02-24T05:05:25;6.83;;;2.93;;
21032;SDS011;10675;47.976;7.824;2023-02-24T05:07:55;8.17;;;2.80;;
21032;SDS011;10675;47.976;7.824;2023-02-24T05:10:33;6.57;;;2.90;;
21032;SDS011;10675;47.976;7.824;2023-02-24T05:13:03;5.27;;;2.40;;
21032;SDS011;10675;47.976;7.824;2023-02-24T05:15:30;4.00;;;2.63;;
21032;SDS011;10675;47.976;7.824;2023-02-24T05:18:00;7.00;;;2.63;;
21032;SDS011;10675;47.976;7.824;2023-02-24T05:20:34;8.77;;;2.70;;
21032;SDS011;10675;47.976;7.824;2023-02-24T05:23:23;9.73;;;2.87;;
21032;SDS011;10675;47.976;7.824;2023-02-24T05:25:49;5.67;;;2.63;;
21032;SDS011;10675;47.976;7.824;2023-02-24T05:28:18;2.80;;;2.13;;
21032;SDS011;10675;47.976;7.824;2023-02-24T05:30:51;3.47;;;2.27;;
21032;SDS011;10675;47.976;7.824;2023-02-24T05:33:18;4.53;;;2.50;;
21032;SDS011;10675;47.976;7.824;2023-02-24T05:35:45;5.13;;;2.77;;
21032;SDS011;10675;47.976;7.824;2023-02-24T05:38:12;4.30;;;2.20;;
21032;SDS011;10675;47.976;7.824;2023-02-24T05:40:38;8.80;;;2.67;;
21032;SDS011;10675;47.976;7.824;2023-02-24T05:43:10;5.20;;;2.10;;
21032;SDS011;10675;47.976;7.824;2023-02-24T05:45:39;7.43;;;2.50;;
21032;SDS011;10675;47.976;7.824;2023-02-24T05:48:07;4.30;;;2.97;;
21032;SDS011;10675;47.976;7.824;2023-02-24T05:50:33;4.23;;;2.57;;
21032;SDS011;10675;47.976;7.824;2023-02-24T05:52:58;5.63;;;2.97;;
21032;SDS011;10675;47.976;7.824;2023-02-24T05:55:24;5.10;;;2.30;;
21032;SDS011;10675;47.976;7.824;2023-02-24T05:57:49;6.40;;;2.97;;
21032;SDS011;10675;47.976;7.824;2023-02-24T06:00:17;7.00;;;2.67;;
21032;SDS011;10675;47.976;7.824;2023-02-24T06:02:43;7.90;;;2.23;;
21032;SDS011;10675;47.976;7.824;2023-02-24T06:05:14;6.33;;;2.83;;
21032;SDS011;10675;47.976;7.824;2023-02-24T06:07:49;5.37;;;2.50;;
21032;SDS011;10675;47.976;7.824;2023-02-24T06:10:19;6.67;;;2.90;;
21032;SDS011;10675;47.976;7.824;2023-02-24T06:12:46;5.60;;;2.90;;
21032;SDS011;10675;47.976;7.824;2023-02-24T06:15:12;6.57;;;2.80;;
21032;SDS011;10675;47.976;7.824;2023-02-24T06:17:37;4.57;;;2.57;;
21032;SDS011;10675;47.976;7.824;2023-02-24T06:20:03;6.77;;;4.07;;
21032;SDS011;10675;47.976;7.824;2023-02-24T06:22:38;6.77;;;3.20;;
21032;SDS011;10675;47.976;7.824;2023-02-24T06:25:06;6.60;;;3.60;;
21032;SDS011;10675;47.976;7.824;2023-02-24T06:27:33;11.10;;;4.33;;
21032;SDS011;10675;47.976;7.824;2023-02-24T06:30:00;11.40;;;3.87;;
21032;SDS011;10675;47.976;7.824;2023-02-24T06:32:26;8.37;;;3.97;;
21032;SDS011;10675;47.976;7.824;2023-02-24T06:34:52;5.27;;;3.90;;
21032;SDS011;10675;47.976;7.824;2023-02-24T06:37:18;8.83;;;4.30;;
21032;SDS011;10675;47.976;7.824;2023-02-24T06:39:45;6.30;;;3.40;;
21032;SDS011;10675;47.976;7.824;2023-02-24T06:42:10;9.70;;;3.70;;
21032;SDS011;10675;47.976;7.824;2023-02-24T06:44:37;10.53;;;4.90;;
21032;SDS011;10675;47.976;7.824;2023-02-24T06:47:04;14.73;;;3.57;;
21032;SDS011;10675;47.976;7.824;2023-02-24T06:49:31;6.43;;;3.67;;
21032;SDS011;10675;47.976;7.824;2023-02-24T06:51:57;7.57;;;4.07;;
21032;SDS011;10675;47.976;7.824;2023-02-24T06:54:24;9.83;;;3.60;;
21032;SDS011;10675;47.976;7.824;2023-02-24T06:56:53;8.83;;;3.57;;
21032;SDS011;10675;47.976;7.824;2023-02-24T06:59:19;5.07;;;2.90;;
21032;SDS011;10675;47.976;7.824;2023-02-24T07:01:52;7.37;;;2.93;;
21032;SDS011;10675;47.976;7.824;2023-02-24T07:04:22;6.63;;;3.03;;
21032;SDS011;10675;47.976;7.824;2023-02-24T07:06:53;6.87;;;2.90;;
21032;SDS011;10675;47.976;7.824;2023-02-24T07:09:21;8.97;;;2.90;;
21032;SDS011;10675;47.976;7.824;2023-02-24T07:11:49;4.20;;;2.60;;
21032;SDS011;10675;47.976;7.824;2023-02-24T07:14:17;7.23;;;3.03;;
21032;SDS011;10675;47.976;7.824;2023-02-24T07:16:44;6.00;;;2.77;;
21032;SDS011;10675;47.976;7.824;2023-02-24T07:19:13;9.43;;;3.70;;
21032;SDS011;10675;47.976;7.824;2023-02-24T07:21:40;5.63;;;3.20;;
21032;SDS011;10675;47.976;7.824;2023-02-24T07:24:11;6.97;;;3.77;;
21032;SDS011;10675;47.976;7.824;2023-02-24T07:26:38;8.73;;;3.27;;
21032;SDS011;10675;47.976;7.824;2023-02-24T07:29:05;5.20;;;2.87;;
21032;SDS011;10675;47.976;7.824;2023-02-24T07:31:31;9.00;;;2.83;;
21032;SDS011;10675;47.976;7.824;2023-02-24T07:33:58;4.00;;;2.63;;
21032;SDS011;10675;47.976;7.824;2023-02-24T07:36:26;4.63;;;2.80;;
21032;SDS011;10675;47.976;7.824;2023-02-24T07:38:54;7.67;;;2.57;;
21032;SDS011;10675;47.976;7.824;2023-02-24T07:41:25;7.93;;;3.23;;
21032;SDS011;10675;47.976;7.824;2023-02-24T07:43:52;5.77;;;3.23;;
21032;SDS011;10675;47.976;7.824;2023-02-24T07:46:20;8.67;;;3.10;;
21032;SDS011;10675;47.976;7.824;2023-02-24T07:48:48;5.90;;;2.83;;
21032;SDS011;10675;47.976;7.824;2023-02-24T07:51:18;8.97;;;3.13;;
21032;SDS011;10675;47.976;7.824;2023-02-24T07:53:49;8.67;;;3.77;;
21032;SDS011;10675;47.976;7.824;2023-02-24T07:56:17;4.03;;;2.23;;
21032;SDS011;10675;47.976;7.824;2023-02-24T07:58:44;5.03;;;2.87;;
21032;SDS011;10675;47.976;7.824;2023-02-24T08:01:15;11.47;;;2.83;;
21032;SDS011;10675;47.976;7.824;2023-02-24T08:03:50;6.83;;;2.97;;
21032;SDS011;10675;47.976;7.824;2023-02-24T08:06:20;7.90;;;2.70;;
21032;SDS011;10675;47.976;7.824;2023-02-24T08:08:55;9.40;;;2.90;;
21032;SDS011;10675;47.976;7.824;2023-02-24T08:11:34;8.53;;;3.10;;
21032;SDS011;10675;47.976;7.824;2023-02-24T08:14:03;18.10;;;3.77;;
21032;SDS011;10675;47.976;7.824;2023-02-24T08:16:35;5.97;;;3.17;;
21032;SDS011;10675;47.976;7.824;2023-02-24T08:19:10;5.33;;;3.43;;
21032;SDS011;10675;47.976;7.824;2023-02-24T08:21:40;6.27;;;3.70;;
21032;SDS011;10675;47.976;7.824;2023-02-24T08:24:12;7.27;;;3.63;;
21032;SDS011;10675;47.976;7.824;2023-02-24T08:26:46;7.17;;;3.67;;
21032;SDS011;10675;47.976;7.824;2023-02-24T08:29:28;12.20;;;3.53;;
21032;SDS011;10675;47.976;7.824;2023-02-24T08:31:55;7.93;;;3.60;;
21032;SDS011;10675;47.976;7.824;2023-02-24T08:34:22;13.37;;;4.63;;
21032;SDS011;10675;47.976;7.824;2023-02-24T08:36:51;9.10;;;4.00;;
21032;SDS011;10675;47.976;7.824;2023-02-24T08:39:19;12.30;;;4.43;;
21032;SDS011;10675;47.976;7.824;2023-02-24T08:41:46;11.23;;;4.53;;
21032;SDS011;10675;47.976;7.824;2023-02-24T08:44:15;10.70;;;3.93;;
21032;SDS011;10675;47.976;7.824;2023-02-24T08:46:48;8.50;;;4.70;;
21032;SDS011;10675;47.976;7.824;2023-02-24T08:49:15;15.07;;;4.70;;
21032;SDS011;10675;47.976;7.824;2023-02-24T08:51:42;7.93;;;4.33;;
21032;SDS011;10675;47.976;7.824;2023-02-24T08:54:11;9.97;;;3.57;;
21032;SDS011;10675;47.976;7.824;2023-02-24T08:56:40;14.37;;;4.30;;
21032;SDS011;10675;47.976;7.824;2023-02-24T08:59:13;12.27;;;4.17;;
21032;SDS011;10675;47.976;7.824;2023-02-24T09:02:01;13.93;;;4.40;;
21032;SDS011;10675;47.976;7.824;2023-02-24T09:04:49;7.20;;;3.83;;
21032;SDS011;10675;47.976;7.824;2023-02-24T09:07:21;15.93;;;4.13;;
21032;SDS011;10675;47.976;7.824;2023-02-24T09:09:51;8.30;;;4.07;;
21032;SDS011;10675;47.976;7.824;2023-02-24T09:12:22;13.67;;;4.73;;
21032;SDS011;10675;47.976;7.824;2023-02-24T09:14:53;8.97;;;3.70;;
21032;SDS011;10675;47.976;7.824;2023-02-24T09:17:22;13.40;;;3.70;;
21032;SDS011;10675;47.976;7.824;2023-02-24T09:20:04;10.73;;;5.20;;
21032;SDS011;10675;47.976;7.824;2023-02-24T09:22:49;11.60;;;4.63;;
21032;SDS011;10675;47.976;7.824;2023-02-24T09:25:27;8.23;;;4.10;;
21032;SDS011;10675;47.976;7.824;2023-02-24T09:28:13;10.47;;;4.50;;
21032;SDS011;10675;47.976;7.824;2023-02-24T09:33:18;9.73;;;4.57;;
21032;SDS011;10675;47.976;7.824;2023-02-24T09:35:48;10.43;;;4.03;;
21032;SDS011;10675;47.976;7.824;2023-02-24T09:38:17;11.23;;;4.93;;
21032;SDS011;10675;47.976;7.824;2023-02-24T09:40:47;10.27;;;4.00;;
21032;SDS011;10675;47.976;7.824;2023-02-24T09:45:50;12.13;;;4.63;;
21032;SDS011;10675;47.976;7.824;2023-02-24T09:48:40;12.07;;;4.93;;
21032;SDS011;10675;47.976;7.824;2023-02-24T09:51:13;11.20;;;5.00;;
21032;SDS011;10675;47.976;7.824;2023-02-24T09:53:47;9.83;;;5.13;;
21032;SDS011;10675;47.976;7.824;2023-02-24T09:56:26;11.80;;;5.10;;
21032;SDS011;10675;47.976;7.824;2023-02-24T09:59:11;9.47;;;5.10;;
21032;SDS011;10675;47.976;7.824;2023-02-24T10:01:55;12.30;;;5.33;;
21032;SDS011;10675;47.976;7.824;2023-02-24T10:07:43;13.77;;;5.67;;
21032;SDS011;10675;47.976;7.824;2023-02-24T10:10:13;13.93;;;6.47;;
21032;SDS011;10675;47.976;7.824;2023-02-24T10:12:54;14.07;;;5.27;;
21032;SDS011;10675;47.976;7.824;2023-02-24T10:15:40;10.83;;;5.60;;
21032;SDS011;10675;47.976;7.824;2023-02-24T10:18:29;14.47;;;5.93;;
21032;SDS011;10675;47.976;7.824;2023-02-24T10:20:59;11.20;;;5.33;;
21032;SDS011;10675;47.976;7.824;2023-02-24T10:23:37;12.27;;;5.77;;
21032;SDS011;10675;47.976;7.824;2023-02-24T10:26:22;14.60;;;5.00;;
21032;SDS011;10675;47.976;7.824;2023-02-24T10:29:06;16.37;;;5.63;;
21032;SDS011;10675;47.976;7.824;2023-02-24T10:31:47;11.23;;;5.07;;
21032;SDS011;10675;47.976;7.824;2023-02-24T10:34:22;12.47;;;4.70;;
21032;SDS011;10675;47.976;7.824;2023-02-24T10:36:50;14.93;;;5.50;;
21032;SDS011;10675;47.976;7.824;2023-02-24T10:39:17;10.77;;;5.00;;
21032;SDS011;10675;47.976;7.824;2023-02-24T10:41:46;11.27;;;5.90;;
21032;SDS011;10675;47.976;7.824;2023-02-24T10:44:20;14.57;;;7.32;;
21032;SDS011;10675;47.976;7.824;2023-02-24T10:46:57;13.47;;;5.87;;
21032;SDS011;10675;47.976;7.824;2023-02-24T10:49:53;11.03;;;5.47;;
21032;SDS011;10675;47.976;7.824;2023-02-24T10:52:28;12.40;;;5.47;;
21032;SDS011;10675;47.976;7.824;2023-02-24T10:55:25;10.40;;;5.57;;
21032;SDS011;10675;47.976;7.824;2023-02-24T10:58:20;11.13;;;5.80;;
21032;SDS011;10675;47.976;7.824;2023-02-24T11:00:56;12.47;;;5.57;;
21032;SDS011;10675;47.976;7.824;2023-02-24T11:03:31;9.20;;;5.80;;
21032;SDS011;10675;47.976;7.824;2023-02-24T11:06:19;12.47;;;6.07;;
21032;SDS011;10675;47.976;7.824;2023-02-24T11:12:15;10.27;;;5.07;;
21032;SDS011;10675;47.976;7.824;2023-02-24T11:15:29;11.97;;;5.30;;
21032;SDS011;10675;47.976;7.824;2023-02-24T11:18:15;13.27;;;5.60;;
21032;SDS011;10675;47.976;7.824;2023-02-24T11:20:48;8.40;;;4.80;;
21032;SDS011;10675;47.976;7.824;2023-02-24T11:23:22;9.13;;;5.47;;
21032;SDS011;10675;47.976;7.824;2023-02-24T11:25:58;12.00;;;5.97;;
21032;SDS011;10675;47.976;7.824;2023-02-24T11:31:40;11.47;;;4.97;;
21032;SDS011;10675;47.976;7.824;2023-02-24T11:39:44;14.63;;;5.50;;
21032;SDS011;10675;47.976;7.824;2023-02-24T11:42:23;14.27;;;5.63;;
21032;SDS011;10675;47.976;7.824;2023-02-24T11:47:39;13.57;;;5.83;;
21032;SDS011;10675;47.976;7.824;2023-02-24T11:52:40;11.80;;;6.17;;
21032;SDS011;10675;47.976;7.824;2023-02-24T11:55:13;16.50;;;6.30;;
21032;SDS011;10675;47.976;7.824;2023-02-24T11:57:52;15.30;;;6.13;;
21032;SDS011;10675;47.976;7.824;2023-02-24T12:00:20;9.90;;;5.67;;
21032;SDS011;10675;47.976;7.824;2023-02-24T12:02:56;11.93;;;5.63;;
21032;SDS011;10675;47.976;7.824;2023-02-24T12:05:31;10.67;;;6.03;;
21032;SDS011;10675;47.976;7.824;2023-02-24T12:08:05;16.92;;;7.93;;
21032;SDS011;10675;47.976;7.824;2023-02-24T12:10:52;13.27;;;6.60;;
21032;SDS011;10675;47.976;7.824;2023-02-24T12:13:37;12.10;;;6.00;;
21032;SDS011;10675;47.976;7.824;2023-02-24T12:16:09;11.90;;;5.70;;
21032;SDS011;10675;47.976;7.824;2023-02-24T12:21:22;17.13;;;6.17;;
21032;SDS011;10675;47.976;7.824;2023-02-24T12:23:55;10.73;;;5.93;;
21032;SDS011;10675;47.976;7.824;2023-02-24T12:26:40;12.70;;;6.20;;
21032;SDS011;10675;47.976;7.824;2023-02-24T12:29:29;13.33;;;5.70;;
21032;SDS011;10675;47.976;7.824;2023-02-24T12:32:20;13.87;;;6.30;;
21032;SDS011;10675;47.976;7.824;2023-02-24T12:35:27;13.87;;;6.50;;
21032;SDS011;10675;47.976;7.824;2023-02-24T12:44:21;16.07;;;6.57;;
21032;SDS011;10675;47.976;7.824;2023-02-24T12:47:16;10.17;;;5.50;;
21032;SDS011;10675;47.976;7.824;2023-02-24T12:55:18;11.00;;;5.73;;
21032;SDS011;10675;47.976;7.824;2023-02-24T13:00:21;14.70;;;6.33;;
21032;SDS011;10675;47.976;7.824;2023-02-24T13:05:50;12.30;;;5.73;;
21032;SDS011;10675;47.976;7.824;2023-02-24T13:16:04;10.00;;;6.00;;
21032;SDS011;10675;47.976;7.824;2023-02-24T13:18:31;14.10;;;5.93;;
21032;SDS011;10675;47.976;7.824;2023-02-24T13:23:50;14.10;;;6.07;;
21032;SDS011;10675;47.976;7.824;2023-02-24T13:26:25;14.97;;;7.67;;
21032;SDS011;10675;47.976;7.824;2023-02-24T13:28:57;13.10;;;6.00;;
21032;SDS011;10675;47.976;7.824;2023-02-24T13:31:49;16.37;;;6.73;;
21032;SDS011;10675;47.976;7.824;2023-02-24T13:34:30;13.18;;;6.07;;
21032;SDS011;10675;47.976;7.824;2023-02-24T13:37:06;13.60;;;5.73;;
21032;SDS011;10675;47.976;7.824;2023-02-24T13:39:37;16.67;;;6.30;;
21032;SDS011;10675;47.976;7.824;2023-02-24T13:42:27;13.03;;;5.97;;
21032;SDS011;10675;47.976;7.824;2023-02-24T13:45:04;16.33;;;5.77;;
21032;SDS011;10675;47.976;7.824;2023-02-24T13:50:24;15.47;;;6.40;;
21032;SDS011;10675;47.976;7.824;2023-02-24T13:55:55;14.13;;;6.00;;
21032;SDS011;10675;47.976;7.824;2023-02-24T13:58:52;13.90;;;6.17;;
21032;SDS011;10675;47.976;7.824;2023-02-24T14:01:25;13.07;;;6.87;;
21032;SDS011;10675;47.976;7.824;2023-02-24T14:06:47;12.30;;;6.30;;
21032;SDS011;10675;47.976;7.824;2023-02-24T14:09:17;11.90;;;5.53;;
21032;SDS011;10675;47.976;7.824;2023-02-24T14:11:57;11.97;;;5.90;;
21032;SDS011;10675;47.976;7.824;2023-02-24T14:14:44;18.47;;;5.90;;
21032;SDS011;10675;47.976;7.824;2023-02-24T14:17:31;13.33;;;5.97;;
21032;SDS011;10675;47.976;7.824;2023-02-24T14:22:46;12.77;;;6.33;;
21032;SDS011;10675;47.976;7.824;2023-02-24T14:25:14;12.73;;;6.23;;
21032;SDS011;10675;47.976;7.824;2023-02-24T14:27:41;18.80;;;7.80;;
21032;SDS011;10675;47.976;7.824;2023-02-24T14:30:25;13.13;;;6.17;;
21032;SDS011;10675;47.976;7.824;2023-02-24T14:33:05;14.67;;;6.70;;
21032;SDS011;10675;47.976;7.824;2023-02-24T14:35:41;12.37;;;7.23;;
21032;SDS011;10675;47.976;7.824;2023-02-24T14:38:44;10.03;;;6.13;;
21032;SDS011;10675;47.976;7.824;2023-02-24T14:41:06;10.83;;;6.33;;
21032;SDS011;10675;47.976;7.824;2023-02-24T14:43:44;13.17;;;5.77;;
21032;SDS011;10675;47.976;7.824;2023-02-24T14:46:09;15.30;;;6.30;;
21032;SDS011;10675;47.976;7.824;2023-02-24T14:48:35;13.53;;;6.03;;
21032;SDS011;10675;47.976;7.824;2023-02-24T14:51:01;14.20;;;6.90;;
21032;SDS011;10675;47.976;7.824;2023-02-24T14:53:33;8.57;;;6.23;;
21032;SDS011;10675;47.976;7.824;2023-02-24T14:56:02;10.40;;;5.67;;
21032;SDS011;10675;47.976;7.824;2023-02-24T15:01:18;9.57;;;6.43;;
21032;SDS011;10675;47.976;7.824;2023-02-24T15:04:11;11.93;;;6.07;;
21032;SDS011;10675;47.976;7.824;2023-02-24T15:06:43;10.77;;;6.40;;
21032;SDS011;10675;47.976;7.824;2023-02-24T15:09:13;13.63;;;6.43;;
21032;SDS011;10675;47.976;7.824;2023-02-24T15:11:49;12.37;;;6.63;;
21032;SDS011;10675;47.976;7.824;2023-02-24T15:14:24;12.50;;;6.53;;
21032;SDS011;10675;47.976;7.824;2023-02-24T15:16:59;14.70;;;6.77;;
21032;SDS011;10675;47.976;7.824;2023-02-24T15:19:38;14.80;;;6.77;;
21032;SDS011;10675;47.976;7.824;2023-02-24T15:22:26;16.50;;;6.63;;
21032;SDS011;10675;47.976;7.824;2023-02-24T15:24:54;13.80;;;6.93;;
21032;SDS011;10675;47.976;7.824;2023-02-24T15:27:55;13.17;;;6.30;;
21032;SDS011;10675;47.976;7.824;2023-02-24T15:33:05;15.87;;;6.37;;
21032;SDS011;10675;47.976;7.824;2023-02-24T15:35:49;16.33;;;6.70;;
21032;SDS011;10675;47.976;7.824;2023-02-24T15:41:00;15.57;;;7.60;;
21032;SDS011;10675;47.976;7.824;2023-02-24T15:43:32;13.73;;;6.70;;
21032;SDS011;10675;47.976;7.824;2023-02-24T15:45:58;15.13;;;6.70;;
21032;SDS011;10675;47.976;7.824;2023-02-24T15:48:24;12.97;;;6.43;;
21032;SDS011;10675;47.976;7.824;2023-02-24T15:50:53;17.07;;;6.97;;
21032;SDS011;10675;47.976;7.824;2023-02-24T15:53:23;11.40;;;6.37;;
21032;SDS011;10675;47.976;7.824;2023-02-24T15:55:49;12.87;;;7.40;;
21032;SDS011;10675;47.976;7.824;2023-02-24T15:58:16;13.97;;;6.47;;
21032;SDS011;10675;47.976;7.824;2023-02-24T16:00:45;18.80;;;7.97;;
21032;SDS011;10675;47.976;7.824;2023-02-24T16:03:16;12.57;;;6.80;;
21032;SDS011;10675;47.976;7.824;2023-02-24T16:05:41;14.73;;;7.23;;
21032;SDS011;10675;47.976;7.824;2023-02-24T16:08:11;13.80;;;6.33;;
21032;SDS011;10675;47.976;7.824;2023-02-24T16:10:41;17.90;;;8.27;;
21032;SDS011;10675;47.976;7.824;2023-02-24T16:13:07;16.17;;;7.50;;
21032;SDS011;10675;47.976;7.824;2023-02-24T16:15:39;13.47;;;6.40;;
21032;SDS011;10675;47.976;7.824;2023-02-24T16:18:08;14.63;;;6.17;;
21032;SDS011;10675;47.976;7.824;2023-02-24T16:20:42;15.10;;;7.20;;
21032;SDS011;10675;47.976;7.824;2023-02-24T16:23:09;16.00;;;7.47;;
21032;SDS011;10675;47.976;7.824;2023-02-24T16:25:36;10.70;;;6.47;;
21032;SDS011;10675;47.976;7.824;2023-02-24T16:28:04;14.63;;;6.83;;
21032;SDS011;10675;47.976;7.824;2023-02-24T16:30:29;17.37;;;7.13;;
21032;SDS011;10675;47.976;7.824;2023-02-24T16:32:56;14.30;;;6.90;;
21032;SDS011;10675;47.976;7.824;2023-02-24T16:35:22;13.73;;;6.47;;
21032;SDS011;10675;47.976;7.824;2023-02-24T16:37:49;13.00;;;6.13;;
21032;SDS011;10675;47.976;7.824;2023-02-24T16:40:23;16.83;;;6.10;;
21032;SDS011;10675;47.976;7.824;2023-02-24T16:42:54;10.87;;;6.30;;
21032;SDS011;10675;47.976;7.824;2023-02-24T16:45:20;14.33;;;6.73;;
21032;SDS011;10675;47.976;7.824;2023-02-24T16:47:49;12.67;;;6.90;;
21032;SDS011;10675;47.976;7.824;2023-02-24T16:50:48;11.03;;;7.13;;
21032;SDS011;10675;47.976;7.824;2023-02-24T16:53:07;12.53;;;6.47;;
21032;SDS011;10675;47.976;7.824;2023-02-24T16:55:37;14.07;;;7.03;;
21032;SDS011;10675;47.976;7.824;2023-02-24T16:58:03;15.87;;;7.00;;
21032;SDS011;10675;47.976;7.824;2023-02-24T17:00:29;12.77;;;7.17;;
21032;SDS011;10675;47.976;7.824;2023-02-24T17:02:54;14.87;;;7.10;;
21032;SDS011;10675;47.976;7.824;2023-02-24T17:05:24;31.07;;;12.40;;
21032;SDS011;10675;47.976;7.824;2023-02-24T17:07:52;34.50;;;14.10;;
21032;SDS011;10675;47.976;7.824;2023-02-24T17:10:21;34.20;;;15.20;;
21032;SDS011;10675;47.976;7.824;2023-02-24T17:12:47;28.57;;;12.50;;
21032;SDS011;10675;47.976;7.824;2023-02-24T17:15:14;17.33;;;8.00;;
21032;SDS011;10675;47.976;7.824;2023-02-24T17:17:47;16.57;;;6.43;;